Terminal Aerodrome Forecast
Issued by NWS

Home | Current Version | Previous Version | Text Only | Print | Product List | Glossary On
Versions: 1 2 3 4 5 6 7 8 9 10 11 12 13 14 15 16
000
FTAK31 PAJN 031140
TAFAJN
TAF
PAJN 031140Z 0312/0412 00000KT P6SM VCSH SCT002 OVC060
      TEMPO 0312/0315 4SM BR BKN002
     FM031500 VRB03KT P6SM BCFG FEW005 BKN060
     FM032100 24008KT P6SM SCT080
     FM040200 08005KT P6SM SCT080
     FM040800 VRB04KT P6SM VCSH BKN060=

USA.gov is the U.S. government's official web portal to all federal, state and local government web resources and services.